sensor_id;sensor_type;location;lat;lon;timestamp;P1;durP1;ratioP1;P2;durP2;ratioP2
15216;SDS011;7711;46.634;14.318;2024-03-02T00:01:34;37.93;;;24.00;;
15216;SDS011;7711;46.634;14.318;2024-03-02T00:04:02;36.57;;;23.03;;
15216;SDS011;7711;46.634;14.318;2024-03-02T00:06:33;35.10;;;22.77;;
15216;SDS011;7711;46.634;14.318;2024-03-02T00:09:00;33.00;;;20.67;;
15216;SDS011;7711;46.634;14.318;2024-03-02T00:11:27;32.03;;;21.10;;
15216;SDS011;7711;46.634;14.318;2024-03-02T00:13:54;31.20;;;21.27;;
15216;SDS011;7711;46.634;14.318;2024-03-02T00:16:21;30.67;;;20.60;;
15216;SDS011;7711;46.634;14.318;2024-03-02T00:18:49;29.50;;;18.73;;
15216;SDS011;7711;46.634;14.318;2024-03-02T00:21:16;33.03;;;19.53;;
15216;SDS011;7711;46.634;14.318;2024-03-02T00:23:47;34.50;;;21.73;;
15216;SDS011;7711;46.634;14.318;2024-03-02T00:26:15;36.33;;;21.57;;
15216;SDS011;7711;46.634;14.318;2024-03-02T00:28:42;32.47;;;20.73;;
15216;SDS011;7711;46.634;14.318;2024-03-02T00:31:11;32.97;;;21.00;;
15216;SDS011;7711;46.634;14.318;2024-03-02T00:33:40;33.53;;;21.30;;
15216;SDS011;7711;46.634;14.318;2024-03-02T00:36:08;35.60;;;21.63;;
15216;SDS011;7711;46.634;14.318;2024-03-02T00:38:41;33.93;;;21.30;;
15216;SDS011;7711;46.634;14.318;2024-03-02T00:41:15;37.70;;;20.93;;
15216;SDS011;7711;46.634;14.318;2024-03-02T00:43:50;41.00;;;22.47;;
15216;SDS011;7711;46.634;14.318;2024-03-02T00:46:23;39.40;;;22.43;;
15216;SDS011;7711;46.634;14.318;2024-03-02T00:48:52;36.00;;;22.00;;
15216;SDS011;7711;46.634;14.318;2024-03-02T00:51:20;33.87;;;20.83;;
15216;SDS011;7711;46.634;14.318;2024-03-02T00:53:48;33.23;;;20.20;;
15216;SDS011;7711;46.634;14.318;2024-03-02T00:56:17;32.93;;;21.23;;
15216;SDS011;7711;46.634;14.318;2024-03-02T00:58:44;34.03;;;20.80;;
15216;SDS011;7711;46.634;14.318;2024-03-02T01:01:11;31.00;;;19.73;;
15216;SDS011;7711;46.634;14.318;2024-03-02T01:03:38;34.20;;;20.93;;
15216;SDS011;7711;46.634;14.318;2024-03-02T01:06:06;33.23;;;21.73;;
15216;SDS011;7711;46.634;14.318;2024-03-02T01:08:33;30.87;;;20.97;;
15216;SDS011;7711;46.634;14.318;2024-03-02T01:11:00;33.90;;;21.23;;
15216;SDS011;7711;46.634;14.318;2024-03-02T01:13:29;34.30;;;21.03;;
15216;SDS011;7711;46.634;14.318;2024-03-02T01:15:56;35.23;;;22.20;;
15216;SDS011;7711;46.634;14.318;2024-03-02T01:18:24;33.17;;;21.07;;
15216;SDS011;7711;46.634;14.318;2024-03-02T01:20:51;37.27;;;22.83;;
15216;SDS011;7711;46.634;14.318;2024-03-02T01:23:21;37.03;;;22.57;;
15216;SDS011;7711;46.634;14.318;2024-03-02T01:25:48;36.90;;;22.67;;
15216;SDS011;7711;46.634;14.318;2024-03-02T01:28:15;36.37;;;22.73;;
15216;SDS011;7711;46.634;14.318;2024-03-02T01:30:44;31.83;;;21.80;;
15216;SDS011;7711;46.634;14.318;2024-03-02T01:33:11;39.53;;;22.87;;
15216;SDS011;7711;46.634;14.318;2024-03-02T01:35:38;36.70;;;22.97;;
15216;SDS011;7711;46.634;14.318;2024-03-02T01:38:05;34.87;;;22.70;;
15216;SDS011;7711;46.634;14.318;2024-03-02T01:40:32;35.27;;;20.90;;
15216;SDS011;7711;46.634;14.318;2024-03-02T01:43:00;33.13;;;20.97;;
15216;SDS011;7711;46.634;14.318;2024-03-02T01:45:27;35.87;;;21.83;;
15216;SDS011;7711;46.634;14.318;2024-03-02T01:47:56;31.93;;;21.60;;
15216;SDS011;7711;46.634;14.318;2024-03-02T01:50:26;37.50;;;23.07;;
15216;SDS011;7711;46.634;14.318;2024-03-02T01:52:54;37.67;;;24.07;;
15216;SDS011;7711;46.634;14.318;2024-03-02T01:55:22;39.80;;;24.80;;
15216;SDS011;7711;46.634;14.318;2024-03-02T01:57:49;35.00;;;23.40;;
15216;SDS011;7711;46.634;14.318;2024-03-02T02:00:17;36.23;;;23.97;;
15216;SDS011;7711;46.634;14.318;2024-03-02T02:02:45;42.47;;;25.13;;
15216;SDS011;7711;46.634;14.318;2024-03-02T02:05:14;37.70;;;23.40;;
15216;SDS011;7711;46.634;14.318;2024-03-02T02:07:41;37.37;;;23.17;;
15216;SDS011;7711;46.634;14.318;2024-03-02T02:10:09;34.83;;;23.10;;
15216;SDS011;7711;46.634;14.318;2024-03-02T02:12:36;39.23;;;22.87;;
15216;SDS011;7711;46.634;14.318;2024-03-02T02:15:04;37.60;;;23.20;;
15216;SDS011;7711;46.634;14.318;2024-03-02T02:17:47;35.40;;;22.17;;
15216;SDS011;7711;46.634;14.318;2024-03-02T02:20:15;34.87;;;22.00;;
15216;SDS011;7711;46.634;14.318;2024-03-02T02:22:54;35.23;;;21.73;;
15216;SDS011;7711;46.634;14.318;2024-03-02T02:25:22;39.43;;;22.00;;
15216;SDS011;7711;46.634;14.318;2024-03-02T02:27:48;33.23;;;21.60;;
15216;SDS011;7711;46.634;14.318;2024-03-02T02:30:18;35.43;;;23.23;;
15216;SDS011;7711;46.634;14.318;2024-03-02T02:32:45;48.13;;;28.50;;
15216;SDS011;7711;46.634;14.318;2024-03-02T02:35:12;53.93;;;30.47;;
15216;SDS011;7711;46.634;14.318;2024-03-02T02:37:39;44.57;;;27.37;;
15216;SDS011;7711;46.634;14.318;2024-03-02T02:40:09;46.30;;;25.40;;
15216;SDS011;7711;46.634;14.318;2024-03-02T02:42:36;44.40;;;26.87;;
15216;SDS011;7711;46.634;14.318;2024-03-02T02:45:03;44.37;;;26.30;;
15216;SDS011;7711;46.634;14.318;2024-03-02T02:47:31;46.83;;;24.90;;
15216;SDS011;7711;46.634;14.318;2024-03-02T02:50:00;41.67;;;25.37;;
15216;SDS011;7711;46.634;14.318;2024-03-02T02:52:30;26.27;;;17.57;;
15216;SDS011;7711;46.634;14.318;2024-03-02T02:55:00;25.03;;;17.07;;
15216;SDS011;7711;46.634;14.318;2024-03-02T02:57:29;31.67;;;18.30;;
15216;SDS011;7711;46.634;14.318;2024-03-02T03:00:00;41.47;;;23.07;;
15216;SDS011;7711;46.634;14.318;2024-03-02T03:02:29;40.63;;;22.77;;
15216;SDS011;7711;46.634;14.318;2024-03-02T03:04:56;34.90;;;22.00;;
15216;SDS011;7711;46.634;14.318;2024-03-02T03:07:23;40.03;;;23.27;;
15216;SDS011;7711;46.634;14.318;2024-03-02T03:09:50;38.63;;;21.77;;
15216;SDS011;7711;46.634;14.318;2024-03-02T03:12:17;44.33;;;24.13;;
15216;SDS011;7711;46.634;14.318;2024-03-02T03:14:45;37.10;;;21.17;;
15216;SDS011;7711;46.634;14.318;2024-03-02T03:17:12;30.97;;;19.47;;
15216;SDS011;7711;46.634;14.318;2024-03-02T03:19:39;33.27;;;20.03;;
15216;SDS011;7711;46.634;14.318;2024-03-02T03:22:06;32.20;;;20.00;;
15216;SDS011;7711;46.634;14.318;2024-03-02T03:24:33;31.17;;;19.43;;
15216;SDS011;7711;46.634;14.318;2024-03-02T03:27:00;32.17;;;19.93;;
15216;SDS011;7711;46.634;14.318;2024-03-02T03:29:27;29.83;;;20.10;;
15216;SDS011;7711;46.634;14.318;2024-03-02T03:31:55;30.23;;;19.23;;
15216;SDS011;7711;46.634;14.318;2024-03-02T03:34:22;30.43;;;19.00;;
15216;SDS011;7711;46.634;14.318;2024-03-02T03:36:49;31.87;;;19.63;;
15216;SDS011;7711;46.634;14.318;2024-03-02T03:39:16;29.63;;;18.87;;
15216;SDS011;7711;46.634;14.318;2024-03-02T03:41:43;29.40;;;18.73;;
15216;SDS011;7711;46.634;14.318;2024-03-02T03:44:10;28.50;;;18.43;;
15216;SDS011;7711;46.634;14.318;2024-03-02T03:46:37;29.43;;;17.87;;
15216;SDS011;7711;46.634;14.318;2024-03-02T03:49:06;26.83;;;17.77;;
15216;SDS011;7711;46.634;14.318;2024-03-02T03:51:32;27.17;;;17.27;;
15216;SDS011;7711;46.634;14.318;2024-03-02T03:54:00;27.73;;;17.97;;
15216;SDS011;7711;46.634;14.318;2024-03-02T03:56:27;26.17;;;17.73;;
15216;SDS011;7711;46.634;14.318;2024-03-02T03:58:54;30.47;;;18.77;;
15216;SDS011;7711;46.634;14.318;2024-03-02T04:01:21;28.40;;;17.63;;
15216;SDS011;7711;46.634;14.318;2024-03-02T04:03:48;27.97;;;18.67;;
15216;SDS011;7711;46.634;14.318;2024-03-02T04:06:16;29.27;;;18.33;;
15216;SDS011;7711;46.634;14.318;2024-03-02T04:08:43;30.57;;;18.43;;
15216;SDS011;7711;46.634;14.318;2024-03-02T04:11:10;30.10;;;18.93;;
15216;SDS011;7711;46.634;14.318;2024-03-02T04:13:37;31.03;;;19.43;;
15216;SDS011;7711;46.634;14.318;2024-03-02T04:16:04;28.60;;;18.73;;
15216;SDS011;7711;46.634;14.318;2024-03-02T04:18:31;25.57;;;17.70;;
15216;SDS011;7711;46.634;14.318;2024-03-02T04:20:58;26.73;;;18.17;;
15216;SDS011;7711;46.634;14.318;2024-03-02T04:23:27;26.30;;;17.87;;
15216;SDS011;7711;46.634;14.318;2024-03-02T04:25:54;28.70;;;17.60;;
15216;SDS011;7711;46.634;14.318;2024-03-02T04:28:21;25.10;;;15.97;;
15216;SDS011;7711;46.634;14.318;2024-03-02T04:30:48;25.87;;;17.13;;
15216;SDS011;7711;46.634;14.318;2024-03-02T04:33:14;37.47;;;23.73;;
15216;SDS011;7711;46.634;14.318;2024-03-02T04:35:41;36.10;;;22.37;;
15216;SDS011;7711;46.634;14.318;2024-03-02T04:38:08;35.13;;;20.27;;
15216;SDS011;7711;46.634;14.318;2024-03-02T04:40:37;34.20;;;20.53;;
15216;SDS011;7711;46.634;14.318;2024-03-02T04:43:03;25.63;;;17.80;;
15216;SDS011;7711;46.634;14.318;2024-03-02T04:45:30;27.30;;;18.00;;
15216;SDS011;7711;46.634;14.318;2024-03-02T04:47:57;24.43;;;16.83;;
15216;SDS011;7711;46.634;14.318;2024-03-02T04:50:24;20.67;;;15.47;;
15216;SDS011;7711;46.634;14.318;2024-03-02T04:52:51;25.43;;;16.83;;
15216;SDS011;7711;46.634;14.318;2024-03-02T04:55:18;25.53;;;16.00;;
15216;SDS011;7711;46.634;14.318;2024-03-02T04:58:11;21.60;;;15.17;;
15216;SDS011;7711;46.634;14.318;2024-03-02T05:00:38;24.77;;;15.00;;
15216;SDS011;7711;46.634;14.318;2024-03-02T05:03:05;21.83;;;15.33;;
15216;SDS011;7711;46.634;14.318;2024-03-02T05:05:32;22.10;;;15.07;;
15216;SDS011;7711;46.634;14.318;2024-03-02T05:08:00;23.53;;;15.70;;
15216;SDS011;7711;46.634;14.318;2024-03-02T05:10:28;20.83;;;15.70;;
15216;SDS011;7711;46.634;14.318;2024-03-02T05:12:55;22.77;;;15.73;;
15216;SDS011;7711;46.634;14.318;2024-03-02T05:15:25;21.30;;;15.47;;
15216;SDS011;7711;46.634;14.318;2024-03-02T05:17:52;20.57;;;15.77;;
15216;SDS011;7711;46.634;14.318;2024-03-02T05:20:19;22.00;;;15.40;;
15216;SDS011;7711;46.634;14.318;2024-03-02T05:22:46;21.30;;;15.43;;
15216;SDS011;7711;46.634;14.318;2024-03-02T05:25:13;18.73;;;14.83;;
15216;SDS011;7711;46.634;14.318;2024-03-02T05:27:40;21.03;;;14.50;;
15216;SDS011;7711;46.634;14.318;2024-03-02T05:30:08;17.27;;;13.27;;
15216;SDS011;7711;46.634;14.318;2024-03-02T05:32:37;16.90;;;13.27;;
15216;SDS011;7711;46.634;14.318;2024-03-02T05:35:04;21.30;;;14.60;;
15216;SDS011;7711;46.634;14.318;2024-03-02T05:37:33;21.40;;;15.10;;
15216;SDS011;7711;46.634;14.318;2024-03-02T05:40:00;21.83;;;15.23;;
15216;SDS011;7711;46.634;14.318;2024-03-02T05:42:28;22.47;;;14.63;;
15216;SDS011;7711;46.634;14.318;2024-03-02T05:44:55;26.77;;;17.40;;
15216;SDS011;7711;46.634;14.318;2024-03-02T05:47:22;28.10;;;18.70;;
15216;SDS011;7711;46.634;14.318;2024-03-02T05:49:50;28.50;;;18.90;;
15216;SDS011;7711;46.634;14.318;2024-03-02T05:52:17;28.73;;;19.13;;
15216;SDS011;7711;46.634;14.318;2024-03-02T05:54:44;31.40;;;19.73;;
15216;SDS011;7711;46.634;14.318;2024-03-02T05:57:11;29.67;;;20.03;;
15216;SDS011;7711;46.634;14.318;2024-03-02T05:59:57;27.60;;;17.70;;
15216;SDS011;7711;46.634;14.318;2024-03-02T06:02:24;29.47;;;18.67;;
15216;SDS011;7711;46.634;14.318;2024-03-02T06:04:52;31.80;;;18.97;;
15216;SDS011;7711;46.634;14.318;2024-03-02T06:07:21;28.83;;;18.80;;
15216;SDS011;7711;46.634;14.318;2024-03-02T06:09:48;27.47;;;18.03;;
15216;SDS011;7711;46.634;14.318;2024-03-02T06:12:17;28.90;;;18.83;;
15216;SDS011;7711;46.634;14.318;2024-03-02T06:14:44;33.07;;;21.97;;
15216;SDS011;7711;46.634;14.318;2024-03-02T06:17:11;30.50;;;21.30;;
15216;SDS011;7711;46.634;14.318;2024-03-02T06:19:38;31.47;;;19.70;;
15216;SDS011;7711;46.634;14.318;2024-03-02T06:22:07;30.97;;;19.43;;
15216;SDS011;7711;46.634;14.318;2024-03-02T06:24:35;29.13;;;19.87;;
15216;SDS011;7711;46.634;14.318;2024-03-02T06:27:02;33.50;;;21.80;;
15216;SDS011;7711;46.634;14.318;2024-03-02T06:29:32;32.03;;;20.33;;
15216;SDS011;7711;46.634;14.318;2024-03-02T06:31:59;33.93;;;21.30;;
15216;SDS011;7711;46.634;14.318;2024-03-02T06:34:26;27.13;;;19.33;;
15216;SDS011;7711;46.634;14.318;2024-03-02T06:36:53;26.97;;;17.67;;
15216;SDS011;7711;46.634;14.318;2024-03-02T06:39:22;28.93;;;18.67;;
15216;SDS011;7711;46.634;14.318;2024-03-02T06:41:49;30.00;;;20.07;;
15216;SDS011;7711;46.634;14.318;2024-03-02T06:44:16;29.70;;;18.90;;
15216;SDS011;7711;46.634;14.318;2024-03-02T06:46:43;30.63;;;21.47;;
15216;SDS011;7711;46.634;14.318;2024-03-02T06:49:10;36.60;;;24.80;;
15216;SDS011;7711;46.634;14.318;2024-03-02T06:51:37;29.93;;;18.97;;
15216;SDS011;7711;46.634;14.318;2024-03-02T06:54:04;30.33;;;20.10;;
15216;SDS011;7711;46.634;14.318;2024-03-02T06:56:32;33.70;;;24.13;;
15216;SDS011;7711;46.634;14.318;2024-03-02T06:58:59;30.97;;;21.60;;
15216;SDS011;7711;46.634;14.318;2024-03-02T07:01:27;30.43;;;20.50;;
15216;SDS011;7711;46.634;14.318;2024-03-02T07:03:54;25.83;;;17.93;;
15216;SDS011;7711;46.634;14.318;2024-03-02T07:06:20;26.80;;;17.03;;
15216;SDS011;7711;46.634;14.318;2024-03-02T07:08:47;32.23;;;23.47;;
15216;SDS011;7711;46.634;14.318;2024-03-02T07:11:14;46.67;;;32.00;;
15216;SDS011;7711;46.634;14.318;2024-03-02T07:13:43;33.23;;;23.73;;
15216;SDS011;7711;46.634;14.318;2024-03-02T07:16:10;30.63;;;20.87;;
15216;SDS011;7711;46.634;14.318;2024-03-02T07:18:52;25.30;;;19.57;;
15216;SDS011;7711;46.634;14.318;2024-03-02T07:21:21;28.43;;;20.47;;
15216;SDS011;7711;46.634;14.318;2024-03-02T07:23:49;26.53;;;19.20;;
15216;SDS011;7711;46.634;14.318;2024-03-02T07:26:16;27.87;;;17.63;;
15216;SDS011;7711;46.634;14.318;2024-03-02T07:28:46;43.37;;;25.57;;
15216;SDS011;7711;46.634;14.318;2024-03-02T07:31:14;30.27;;;20.20;;
15216;SDS011;7711;46.634;14.318;2024-03-02T07:33:43;27.00;;;18.93;;
15216;SDS011;7711;46.634;14.318;2024-03-02T07:36:11;22.57;;;16.90;;
15216;SDS011;7711;46.634;14.318;2024-03-02T07:38:38;20.07;;;15.97;;
15216;SDS011;7711;46.634;14.318;2024-03-02T07:41:06;26.27;;;19.30;;
15216;SDS011;7711;46.634;14.318;2024-03-02T07:43:33;23.90;;;17.30;;
15216;SDS011;7711;46.634;14.318;2024-03-02T07:46:02;23.97;;;15.83;;
15216;SDS011;7711;46.634;14.318;2024-03-02T07:48:29;21.00;;;15.77;;
15216;SDS011;7711;46.634;14.318;2024-03-02T07:50:57;24.20;;;15.77;;
15216;SDS011;7711;46.634;14.318;2024-03-02T07:53:24;23.23;;;15.83;;
15216;SDS011;7711;46.634;14.318;2024-03-02T07:55:51;20.00;;;15.30;;
15216;SDS011;7711;46.634;14.318;2024-03-02T07:58:18;19.77;;;14.80;;
15216;SDS011;7711;46.634;14.318;2024-03-02T08:00:46;21.53;;;15.10;;
15216;SDS011;7711;46.634;14.318;2024-03-02T08:03:15;22.27;;;15.57;;
15216;SDS011;7711;46.634;14.318;2024-03-02T08:05:42;22.30;;;16.97;;
15216;SDS011;7711;46.634;14.318;2024-03-02T08:08:11;25.03;;;18.40;;
15216;SDS011;7711;46.634;14.318;2024-03-02T08:10:38;25.50;;;19.30;;
15216;SDS011;7711;46.634;14.318;2024-03-02T08:13:05;25.07;;;18.20;;
15216;SDS011;7711;46.634;14.318;2024-03-02T08:15:32;24.83;;;18.30;;
15216;SDS011;7711;46.634;14.318;2024-03-02T08:17:59;27.60;;;17.63;;
15216;SDS011;7711;46.634;14.318;2024-03-02T08:20:27;23.03;;;17.23;;
15216;SDS011;7711;46.634;14.318;2024-03-02T08:22:54;24.10;;;16.83;;
15216;SDS011;7711;46.634;14.318;2024-03-02T08:25:22;26.33;;;17.67;;
15216;SDS011;7711;46.634;14.318;2024-03-02T08:27:49;22.97;;;16.90;;
15216;SDS011;7711;46.634;14.318;2024-03-02T08:30:16;23.30;;;16.90;;
15216;SDS011;7711;46.634;14.318;2024-03-02T08:32:43;23.10;;;17.20;;
15216;SDS011;7711;46.634;14.318;2024-03-02T08:35:12;25.80;;;19.10;;
15216;SDS011;7711;46.634;14.318;2024-03-02T08:37:41;22.63;;;16.73;;
15216;SDS011;7711;46.634;14.318;2024-03-02T08:40:08;24.20;;;16.53;;
15216;SDS011;7711;46.634;14.318;2024-03-02T08:42:36;23.73;;;16.43;;
15216;SDS011;7711;46.634;14.318;2024-03-02T08:45:04;20.33;;;15.93;;
15216;SDS011;7711;46.634;14.318;2024-03-02T08:47:31;27.00;;;18.50;;
15216;SDS011;7711;46.634;14.318;2024-03-02T08:49:59;23.60;;;16.20;;
15216;SDS011;7711;46.634;14.318;2024-03-02T08:52:26;21.67;;;14.63;;
15216;SDS011;7711;46.634;14.318;2024-03-02T08:54:55;16.73;;;12.60;;
15216;SDS011;7711;46.634;14.318;2024-03-02T08:57:22;13.70;;;11.93;;
15216;SDS011;7711;46.634;14.318;2024-03-02T08:59:49;15.43;;;12.00;;
15216;SDS011;7711;46.634;14.318;2024-03-02T09:02:16;16.70;;;11.90;;
15216;SDS011;7711;46.634;14.318;2024-03-02T09:04:43;16.63;;;11.53;;
15216;SDS011;7711;46.634;14.318;2024-03-02T09:07:10;14.90;;;11.43;;
15216;SDS011;7711;46.634;14.318;2024-03-02T09:09:37;15.87;;;12.47;;
15216;SDS011;7711;46.634;14.318;2024-03-02T09:12:06;14.43;;;11.63;;
15216;SDS011;7711;46.634;14.318;2024-03-02T09:14:33;23.20;;;15.60;;
15216;SDS011;7711;46.634;14.318;2024-03-02T09:17:03;13.77;;;11.57;;
15216;SDS011;7711;46.634;14.318;2024-03-02T09:19:30;12.80;;;10.93;;
15216;SDS011;7711;46.634;14.318;2024-03-02T09:21:57;12.87;;;10.67;;
15216;SDS011;7711;46.634;14.318;2024-03-02T09:24:24;12.27;;;10.00;;
15216;SDS011;7711;46.634;14.318;2024-03-02T09:26:51;12.20;;;9.83;;
15216;SDS011;7711;46.634;14.318;2024-03-02T09:29:19;10.50;;;9.40;;
15216;SDS011;7711;46.634;14.318;2024-03-02T09:31:45;11.33;;;9.20;;
15216;SDS011;7711;46.634;14.318;2024-03-02T09:34:12;12.10;;;9.00;;
15216;SDS011;7711;46.634;14.318;2024-03-02T09:36:40;10.83;;;9.40;;
15216;SDS011;7711;46.634;14.318;2024-03-02T09:39:07;12.57;;;10.00;;
15216;SDS011;7711;46.634;14.318;2024-03-02T09:41:35;12.03;;;9.93;;
15216;SDS011;7711;46.634;14.318;2024-03-02T09:44:03;15.33;;;10.47;;
15216;SDS011;7711;46.634;14.318;2024-03-02T09:46:32;15.13;;;10.43;;
15216;SDS011;7711;46.634;14.318;2024-03-02T09:49:01;15.13;;;10.50;;
15216;SDS011;7711;46.634;14.318;2024-03-02T09:51:28;11.40;;;9.93;;
15216;SDS011;7711;46.634;14.318;2024-03-02T09:53:55;13.05;;;9.50;;
15216;SDS011;7711;46.634;14.318;2024-03-02T09:56:22;11.43;;;9.48;;
15216;SDS011;7711;46.634;14.318;2024-03-02T09:58:49;11.27;;;9.65;;
15216;SDS011;7711;46.634;14.318;2024-03-02T10:01:17;13.45;;;9.27;;
15216;SDS011;7711;46.634;14.318;2024-03-02T10:03:45;10.68;;;8.80;;
15216;SDS011;7711;46.634;14.318;2024-03-02T10:06:18;10.85;;;8.93;;
15216;SDS011;7711;46.634;14.318;2024-03-02T10:08:46;10.13;;;8.90;;
15216;SDS011;7711;46.634;14.318;2024-03-02T10:11:25;10.83;;;9.37;;
15216;SDS011;7711;46.634;14.318;2024-03-02T10:14:03;13.27;;;9.77;;
15216;SDS011;7711;46.634;14.318;2024-03-02T10:16:33;11.57;;;9.23;;
15216;SDS011;7711;46.634;14.318;2024-03-02T10:19:14;10.00;;;8.43;;
15216;SDS011;7711;46.634;14.318;2024-03-02T10:21:42;12.03;;;8.33;;
15216;SDS011;7711;46.634;14.318;2024-03-02T10:24:10;14.23;;;8.70;;
15216;SDS011;7711;46.634;14.318;2024-03-02T10:26:37;10.43;;;8.53;;
15216;SDS011;7711;46.634;14.318;2024-03-02T10:29:04;11.23;;;8.17;;
15216;SDS011;7711;46.634;14.318;2024-03-02T10:31:31;11.30;;;8.07;;
15216;SDS011;7711;46.634;14.318;2024-03-02T10:33:58;11.73;;;8.73;;
15216;SDS011;7711;46.634;14.318;2024-03-02T10:36:28;10.07;;;8.60;;
15216;SDS011;7711;46.634;14.318;2024-03-02T10:38:56;11.77;;;8.57;;
15216;SDS011;7711;46.634;14.318;2024-03-02T10:41:24;12.93;;;9.20;;
15216;SDS011;7711;46.634;14.318;2024-03-02T10:43:53;16.57;;;10.40;;
15216;SDS011;7711;46.634;14.318;2024-03-02T10:46:24;11.40;;;8.93;;
15216;SDS011;7711;46.634;14.318;2024-03-02T10:48:55;10.30;;;7.75;;
15216;SDS011;7711;46.634;14.318;2024-03-02T10:51:24;10.95;;;8.50;;
15216;SDS011;7711;46.634;14.318;2024-03-02T10:53:52;10.70;;;8.20;;
15216;SDS011;7711;46.634;14.318;2024-03-02T10:56:21;9.80;;;7.80;;
15216;SDS011;7711;46.634;14.318;2024-03-02T10:58:54;12.00;;;8.35;;
15216;SDS011;7711;46.634;14.318;2024-03-02T11:01:28;9.23;;;7.87;;
15216;SDS011;7711;46.634;14.318;2024-03-02T11:03:57;12.23;;;9.07;;
15216;SDS011;7711;46.634;14.318;2024-03-02T11:06:26;10.55;;;8.18;;
15216;SDS011;7711;46.634;14.318;2024-03-02T11:08:59;11.13;;;8.93;;
15216;SDS011;7711;46.634;14.318;2024-03-02T11:11:36;13.00;;;9.77;;
15216;SDS011;7711;46.634;14.318;2024-03-02T11:14:07;14.27;;;8.85;;
15216;SDS011;7711;46.634;14.318;2024-03-02T11:16:37;15.47;;;10.03;;
15216;SDS011;7711;46.634;14.318;2024-03-02T11:19:07;15.43;;;9.73;;
15216;SDS011;7711;46.634;14.318;2024-03-02T11:21:37;11.43;;;9.13;;
15216;SDS011;7711;46.634;14.318;2024-03-02T11:27:01;14.57;;;9.20;;
15216;SDS011;7711;46.634;14.318;2024-03-02T11:29:45;12.80;;;8.68;;
15216;SDS011;7711;46.634;14.318;2024-03-02T11:32:17;10.75;;;8.10;;
15216;SDS011;7711;46.634;14.318;2024-03-02T11:34:48;10.07;;;7.57;;
15216;SDS011;7711;46.634;14.318;2024-03-02T11:37:18;8.20;;;7.05;;
15216;SDS011;7711;46.634;14.318;2024-03-02T11:39:48;12.52;;;7.95;;
15216;SDS011;7711;46.634;14.318;2024-03-02T11:42:16;8.50;;;7.50;;
15216;SDS011;7711;46.634;14.318;2024-03-02T11:44:44;7.55;;;6.57;;
15216;SDS011;7711;46.634;14.318;2024-03-02T11:47:13;6.47;;;5.78;;
15216;SDS011;7711;46.634;14.318;2024-03-02T11:49:42;12.32;;;6.72;;
15216;SDS011;7711;46.634;14.318;2024-03-02T11:52:10;8.40;;;6.73;;
15216;SDS011;7711;46.634;14.318;2024-03-02T11:54:39;8.13;;;6.20;;
15216;SDS011;7711;46.634;14.318;2024-03-02T11:57:15;7.95;;;5.68;;
15216;SDS011;7711;46.634;14.318;2024-03-02T11:59:43;9.00;;;6.23;;
15216;SDS011;7711;46.634;14.318;2024-03-02T12:02:17;7.03;;;5.57;;
15216;SDS011;7711;46.634;14.318;2024-03-02T12:04:46;6.20;;;5.57;;
15216;SDS011;7711;46.634;14.318;2024-03-02T12:07:19;6.47;;;5.80;;
15216;SDS011;7711;46.634;14.318;2024-03-02T12:09:47;6.37;;;4.90;;
15216;SDS011;7711;46.634;14.318;2024-03-02T12:12:16;9.17;;;5.40;;
15216;SDS011;7711;46.634;14.318;2024-03-02T12:14:49;7.63;;;5.28;;
15216;SDS011;7711;46.634;14.318;2024-03-02T12:17:17;7.83;;;4.80;;
15216;SDS011;7711;46.634;14.318;2024-03-02T12:19:44;7.68;;;4.70;;
15216;SDS011;7711;46.634;14.318;2024-03-02T12:22:12;5.53;;;4.78;;
15216;SDS011;7711;46.634;14.318;2024-03-02T12:24:40;7.77;;;4.90;;
15216;SDS011;7711;46.634;14.318;2024-03-02T12:27:10;5.35;;;4.82;;
15216;SDS011;7711;46.634;14.318;2024-03-02T12:29:39;7.57;;;4.72;;
15216;SDS011;7711;46.634;14.318;2024-03-02T12:32:07;6.35;;;5.00;;
15216;SDS011;7711;46.634;14.318;2024-03-02T12:34:34;7.40;;;4.60;;
15216;SDS011;7711;46.634;14.318;2024-03-02T12:37:01;7.72;;;5.05;;
15216;SDS011;7711;46.634;14.318;2024-03-02T12:39:28;5.63;;;4.80;;
15216;SDS011;7711;46.634;14.318;2024-03-02T12:41:58;5.13;;;4.47;;
15216;SDS011;7711;46.634;14.318;2024-03-02T12:44:25;6.35;;;5.22;;
15216;SDS011;7711;46.634;14.318;2024-03-02T12:46:53;5.80;;;4.85;;
15216;SDS011;7711;46.634;14.318;2024-03-02T12:49:21;6.38;;;5.22;;
15216;SDS011;7711;46.634;14.318;2024-03-02T12:51:48;7.82;;;5.63;;
15216;SDS011;7711;46.634;14.318;2024-03-02T12:54:21;8.13;;;5.00;;
15216;SDS011;7711;46.634;14.318;2024-03-02T12:56:50;7.75;;;5.15;;
15216;SDS011;7711;46.634;14.318;2024-03-02T12:59:19;7.75;;;5.78;;
15216;SDS011;7711;46.634;14.318;2024-03-02T13:01:50;8.15;;;5.35;;
15216;SDS011;7711;46.634;14.318;2024-03-02T13:04:22;5.90;;;4.63;;
15216;SDS011;7711;46.634;14.318;2024-03-02T13:06:50;7.55;;;5.15;;
15216;SDS011;7711;46.634;14.318;2024-03-02T13:09:18;5.35;;;4.70;;
15216;SDS011;7711;46.634;14.318;2024-03-02T13:11:45;7.20;;;4.53;;
15216;SDS011;7711;46.634;14.318;2024-03-02T13:14:13;6.28;;;5.03;;
15216;SDS011;7711;46.634;14.318;2024-03-02T13:16:40;4.97;;;4.45;;
15216;SDS011;7711;46.634;14.318;2024-03-02T13:19:07;5.30;;;4.65;;
15216;SDS011;7711;46.634;14.318;2024-03-02T13:21:35;6.35;;;4.63;;
15216;SDS011;7711;46.634;14.318;2024-03-02T13:24:02;5.88;;;4.60;;
15216;SDS011;7711;46.634;14.318;2024-03-02T13:26:30;6.25;;;5.05;;
15216;SDS011;7711;46.634;14.318;2024-03-02T13:28:57;5.55;;;4.97;;
15216;SDS011;7711;46.634;14.318;2024-03-02T13:31:24;6.57;;;4.25;;
15216;SDS011;7711;46.634;14.318;2024-03-02T13:33:51;6.30;;;4.38;;
15216;SDS011;7711;46.634;14.318;2024-03-02T13:36:19;6.53;;;4.45;;
15216;SDS011;7711;46.634;14.318;2024-03-02T13:38:47;5.75;;;4.70;;
15216;SDS011;7711;46.634;14.318;2024-03-02T13:41:14;4.82;;;4.18;;
15216;SDS011;7711;46.634;14.318;2024-03-02T13:43:43;9.00;;;4.72;;
15216;SDS011;7711;46.634;14.318;2024-03-02T13:46:10;5.53;;;4.80;;
15216;SDS011;7711;46.634;14.318;2024-03-02T13:48:38;4.50;;;4.10;;
15216;SDS011;7711;46.634;14.318;2024-03-02T13:51:05;4.05;;;3.60;;
15216;SDS011;7711;46.634;14.318;2024-03-02T13:53:32;4.57;;;3.58;;
15216;SDS011;7711;46.634;14.318;2024-03-02T13:56:02;5.22;;;4.10;;
15216;SDS011;7711;46.634;14.318;2024-03-02T13:58:30;4.38;;;3.97;;
15216;SDS011;7711;46.634;14.318;2024-03-02T14:00:57;5.50;;;4.18;;
15216;SDS011;7711;46.634;14.318;2024-03-02T14:03:27;4.53;;;4.05;;
15216;SDS011;7711;46.634;14.318;2024-03-02T14:05:54;5.57;;;4.20;;
15216;SDS011;7711;46.634;14.318;2024-03-02T14:08:21;4.53;;;4.13;;
15216;SDS011;7711;46.634;14.318;2024-03-02T14:10:49;5.15;;;4.63;;
15216;SDS011;7711;46.634;14.318;2024-03-02T14:13:18;6.60;;;4.82;;
15216;SDS011;7711;46.634;14.318;2024-03-02T14:15:45;6.80;;;4.40;;
15216;SDS011;7711;46.634;14.318;2024-03-02T14:18:12;5.35;;;4.75;;
15216;SDS011;7711;46.634;14.318;2024-03-02T14:20:39;6.40;;;4.75;;
15216;SDS011;7711;46.634;14.318;2024-03-02T14:23:07;5.63;;;4.32;;
15216;SDS011;7711;46.634;14.318;2024-03-02T14:25:35;4.40;;;3.97;;
15216;SDS011;7711;46.634;14.318;2024-03-02T14:28:02;4.70;;;4.30;;
15216;SDS011;7711;46.634;14.318;2024-03-02T14:30:30;6.55;;;4.50;;
15216;SDS011;7711;46.634;14.318;2024-03-02T14:32:59;4.78;;;3.92;;
15216;SDS011;7711;46.634;14.318;2024-03-02T14:35:26;5.88;;;4.30;;
15216;SDS011;7711;46.634;14.318;2024-03-02T14:37:54;4.45;;;4.05;;